sensor_id;sensor_type;location;lat;lon;timestamp;pressure;altitude;pressure_sealevel;temperature;humidity
76586;BME280;65251;51.022;13.736;2023-05-10T00:00:29;98880.38;;;12.81;49.50
76586;BME280;65251;51.022;13.736;2023-05-10T00:01:00;98871.53;;;12.81;49.88
76586;BME280;65251;51.022;13.736;2023-05-10T00:01:32;98874.44;;;12.79;50.06
76586;BME280;65251;51.022;13.736;2023-05-10T00:02:03;98873.66;;;12.79;49.99
76586;BME280;65251;51.022;13.736;2023-05-10T00:02:35;98867.94;;;12.75;49.63
76586;BME280;65251;51.022;13.736;2023-05-10T00:03:06;98868.75;;;12.75;49.26
76586;BME280;65251;51.022;13.736;2023-05-10T00:03:37;98869.78;;;12.74;50.53
76586;BME280;65251;51.022;13.736;2023-05-10T00:04:09;98872.22;;;12.76;49.44
76586;BME280;65251;51.022;13.736;2023-05-10T00:04:39;98866.53;;;12.72;50.10
76586;BME280;65251;51.022;13.736;2023-05-10T00:05:10;98876.75;;;12.75;50.15
76586;BME280;65251;51.022;13.736;2023-05-10T00:05:42;98862.66;;;12.68;49.69
76586;BME280;65251;51.022;13.736;2023-05-10T00:06:13;98868.97;;;12.74;49.36
76586;BME280;65251;51.022;13.736;2023-05-10T00:06:43;98870.81;;;12.73;50.15
76586;BME280;65251;51.022;13.736;2023-05-10T00:07:15;98875.81;;;12.70;49.28
76586;BME280;65251;51.022;13.736;2023-05-10T00:07:47;98871.28;;;12.70;49.64
76586;BME280;65251;51.022;13.736;2023-05-10T00:08:18;98862.44;;;12.70;50.08
76586;BME280;65251;51.022;13.736;2023-05-10T00:08:50;98867.78;;;12.70;50.45
76586;BME280;65251;51.022;13.736;2023-05-10T00:09:20;98867.78;;;12.70;50.21
76586;BME280;65251;51.022;13.736;2023-05-10T00:09:51;98873.94;;;12.70;49.57
76586;BME280;65251;51.022;13.736;2023-05-10T00:10:23;98870.25;;;12.71;50.19
76586;BME280;65251;51.022;13.736;2023-05-10T00:10:54;98867.78;;;12.70;50.68
76586;BME280;65251;51.022;13.736;2023-05-10T00:11:24;98861.25;;;12.66;50.47
76586;BME280;65251;51.022;13.736;2023-05-10T00:11:56;98868.47;;;12.65;50.29
76586;BME280;65251;51.022;13.736;2023-05-10T00:12:28;98868.47;;;12.65;50.20
76586;BME280;65251;51.022;13.736;2023-05-10T00:12:59;98858.00;;;12.64;50.39
76586;BME280;65251;51.022;13.736;2023-05-10T00:13:31;98864.75;;;12.66;49.62
76586;BME280;65251;51.022;13.736;2023-05-10T00:14:02;98858.81;;;12.64;50.41
76586;BME280;65251;51.022;13.736;2023-05-10T00:14:32;98862.91;;;12.67;50.08
76586;BME280;65251;51.022;13.736;2023-05-10T00:15:05;98866.84;;;12.64;49.68
76586;BME280;65251;51.022;13.736;2023-05-10T00:15:36;98871.38;;;12.64;50.25
76586;BME280;65251;51.022;13.736;2023-05-10T00:16:07;98864.63;;;12.61;50.72
76586;BME280;65251;51.022;13.736;2023-05-10T00:16:39;98859.88;;;12.63;49.78
76586;BME280;65251;51.022;13.736;2023-05-10T00:17:11;98858.94;;;12.58;50.40
76586;BME280;65251;51.022;13.736;2023-05-10T00:17:41;98863.81;;;12.61;49.90
76586;BME280;65251;51.022;13.736;2023-05-10T00:18:12;98861.59;;;12.58;50.55
76586;BME280;65251;51.022;13.736;2023-05-10T00:18:44;98867.28;;;12.61;49.89
76586;BME280;65251;51.022;13.736;2023-05-10T00:19:15;98856.59;;;12.61;50.51
76586;BME280;65251;51.022;13.736;2023-05-10T00:19:45;98859.75;;;12.58;50.79
76586;BME280;65251;51.022;13.736;2023-05-10T00:20:16;98858.94;;;12.58;50.27
76586;BME280;65251;51.022;13.736;2023-05-10T00:20:48;98875.19;;;12.56;50.76
76586;BME280;65251;51.022;13.736;2023-05-10T00:21:19;98860.78;;;12.57;50.04
76586;BME280;65251;51.022;13.736;2023-05-10T00:21:49;98863.25;;;12.59;50.70
76586;BME280;65251;51.022;13.736;2023-05-10T00:22:21;98870.44;;;12.58;50.70
76586;BME280;65251;51.022;13.736;2023-05-10T00:22:52;98863.69;;;12.56;50.38
76586;BME280;65251;51.022;13.736;2023-05-10T00:23:23;98854.50;;;12.52;50.69
76586;BME280;65251;51.022;13.736;2023-05-10T00:23:54;98877.28;;;12.54;50.99
76586;BME280;65251;51.022;13.736;2023-05-10T00:24:26;98862.44;;;12.58;50.18
76586;BME280;65251;51.022;13.736;2023-05-10T00:24:56;98866.13;;;12.57;49.92
76586;BME280;65251;51.022;13.736;2023-05-10T00:25:27;98855.69;;;12.56;50.03
76586;BME280;65251;51.022;13.736;2023-05-10T00:25:59;98861.03;;;12.56;51.08
76586;BME280;65251;51.022;13.736;2023-05-10T00:26:30;98862.50;;;12.52;50.85
76586;BME280;65251;51.022;13.736;2023-05-10T00:27:00;98858.56;;;12.54;50.32
76586;BME280;65251;51.022;13.736;2023-05-10T00:27:34;98860.66;;;12.52;50.34
76586;BME280;65251;51.022;13.736;2023-05-10T00:28:05;98851.59;;;12.53;50.41
76586;BME280;65251;51.022;13.736;2023-05-10T00:28:35;98852.84;;;12.51;51.02
76586;BME280;65251;51.022;13.736;2023-05-10T00:29:07;98852.03;;;12.50;50.49
76586;BME280;65251;51.022;13.736;2023-05-10T00:29:38;98849.81;;;12.47;50.91
76586;BME280;65251;51.022;13.736;2023-05-10T00:30:09;98861.56;;;12.46;50.88
76586;BME280;65251;51.022;13.736;2023-05-10T00:30:40;98852.72;;;12.46;50.57
76586;BME280;65251;51.022;13.736;2023-05-10T00:31:11;98850.50;;;12.42;50.53
76586;BME280;65251;51.022;13.736;2023-05-10T00:31:43;98858.28;;;12.44;50.32
76586;BME280;65251;51.022;13.736;2023-05-10T00:32:14;98852.13;;;12.43;50.48
76586;BME280;65251;51.022;13.736;2023-05-10T00:32:46;98848.41;;;12.45;50.92
76586;BME280;65251;51.022;13.736;2023-05-10T00:33:18;98844.13;;;12.43;50.36
76586;BME280;65251;51.022;13.736;2023-05-10T00:33:49;98850.72;;;12.41;51.07
76586;BME280;65251;51.022;13.736;2023-05-10T00:34:20;98853.38;;;12.41;50.84
76586;BME280;65251;51.022;13.736;2023-05-10T00:34:51;98852.00;;;12.38;50.71
76586;BME280;65251;51.022;13.736;2023-05-10T00:35:22;98850.38;;;12.37;50.91
76586;BME280;65251;51.022;13.736;2023-05-10T00:35:54;98845.84;;;12.38;50.98
76586;BME280;65251;51.022;13.736;2023-05-10T00:36:24;98851.19;;;12.38;51.13
76586;BME280;65251;51.022;13.736;2023-05-10T00:36:55;98857.00;;;12.35;51.12
76586;BME280;65251;51.022;13.736;2023-05-10T00:37:27;98842.22;;;12.32;51.20
76586;BME280;65251;51.022;13.736;2023-05-10T00:37:58;98852.09;;;12.32;51.44
76586;BME280;65251;51.022;13.736;2023-05-10T00:38:29;98858.03;;;12.34;51.04
76586;BME280;65251;51.022;13.736;2023-05-10T00:38:59;98850.25;;;12.32;51.24
76586;BME280;65251;51.022;13.736;2023-05-10T00:39:31;98860.09;;;12.32;51.63
76586;BME280;65251;51.022;13.736;2023-05-10T00:40:02;98844.06;;;12.32;51.38
76586;BME280;65251;51.022;13.736;2023-05-10T00:40:33;98850.25;;;12.32;51.46
76586;BME280;65251;51.022;13.736;2023-05-10T00:41:05;98843.50;;;12.30;50.95
76586;BME280;65251;51.022;13.736;2023-05-10T00:41:37;98845.34;;;12.29;50.90
76586;BME280;65251;51.022;13.736;2023-05-10T00:42:08;98847.19;;;12.29;50.88
76586;BME280;65251;51.022;13.736;2023-05-10T00:42:39;98840.00;;;12.29;50.84
76586;BME280;65251;51.022;13.736;2023-05-10T00:43:09;98850.47;;;12.31;51.12
76586;BME280;65251;51.022;13.736;2023-05-10T00:43:41;98853.94;;;12.31;51.62
76586;BME280;65251;51.022;13.736;2023-05-10T00:44:12;98845.34;;;12.29;51.59
76586;BME280;65251;51.022;13.736;2023-05-10T00:44:42;98841.03;;;12.28;51.54
76586;BME280;65251;51.022;13.736;2023-05-10T00:45:14;98838.38;;;12.28;51.38
76586;BME280;65251;51.022;13.736;2023-05-10T00:45:45;98836.75;;;12.27;51.54
76586;BME280;65251;51.022;13.736;2023-05-10T00:46:17;98837.19;;;12.24;51.85
76586;BME280;65251;51.022;13.736;2023-05-10T00:46:50;98827.53;;;12.23;51.88
76586;BME280;65251;51.022;13.736;2023-05-10T00:47:22;98835.19;;;12.20;51.38
76586;BME280;65251;51.022;13.736;2023-05-10T00:47:52;98840.53;;;12.20;51.48
76586;BME280;65251;51.022;13.736;2023-05-10T00:48:26;98836.00;;;12.20;51.67
76586;BME280;65251;51.022;13.736;2023-05-10T00:48:59;98841.34;;;12.20;51.71
76586;BME280;65251;51.022;13.736;2023-05-10T00:49:30;98831.94;;;12.18;51.63
76586;BME280;65251;51.022;13.736;2023-05-10T00:50:02;98842.97;;;12.21;51.82
76586;BME280;65251;51.022;13.736;2023-05-10T00:50:33;98831.47;;;12.21;51.60
76586;BME280;65251;51.022;13.736;2023-05-10T00:51:04;98839.50;;;12.21;51.57
76586;BME280;65251;51.022;13.736;2023-05-10T00:51:36;98844.81;;;12.21;51.62
76586;BME280;65251;51.022;13.736;2023-05-10T00:52:08;98833.34;;;12.20;51.53
76586;BME280;65251;51.022;13.736;2023-05-10T00:52:39;98832.75;;;12.18;51.75
76586;BME280;65251;51.022;13.736;2023-05-10T00:53:12;98838.94;;;12.19;51.42
76586;BME280;65251;51.022;13.736;2023-05-10T00:53:43;98833.59;;;12.19;51.55
76586;BME280;65251;51.022;13.736;2023-05-10T00:54:15;98843.44;;;12.18;51.55
76586;BME280;65251;51.022;13.736;2023-05-10T00:54:47;98841.81;;;12.17;51.56
76586;BME280;65251;51.022;13.736;2023-05-10T00:55:19;98834.25;;;12.14;51.60
76586;BME280;65251;51.022;13.736;2023-05-10T00:55:50;98839.00;;;12.12;51.66
76586;BME280;65251;51.022;13.736;2023-05-10T00:56:22;98839.59;;;12.14;51.78
76586;BME280;65251;51.022;13.736;2023-05-10T00:56:54;98832.84;;;12.12;51.65
76586;BME280;65251;51.022;13.736;2023-05-10T00:57:27;98824.59;;;12.13;51.17
76586;BME280;65251;51.022;13.736;2023-05-10T00:57:59;98834.03;;;12.16;51.09
76586;BME280;65251;51.022;13.736;2023-05-10T00:58:30;98834.25;;;12.14;51.66
76586;BME280;65251;51.022;13.736;2023-05-10T00:59:01;98839.38;;;12.16;51.60
76586;BME280;65251;51.022;13.736;2023-05-10T00:59:33;98836.69;;;12.16;51.56
76586;BME280;65251;51.022;13.736;2023-05-10T01:00:05;98833.44;;;12.14;51.77
76586;BME280;65251;51.022;13.736;2023-05-10T01:00:37;98835.75;;;12.10;51.58
76586;BME280;65251;51.022;13.736;2023-05-10T01:01:09;98836.78;;;12.09;51.68
76586;BME280;65251;51.022;13.736;2023-05-10T01:01:41;98841.06;;;12.10;51.77
76586;BME280;65251;51.022;13.736;2023-05-10T01:02:13;98835.97;;;12.08;51.78
76586;BME280;65251;51.022;13.736;2023-05-10T01:02:46;98826.31;;;12.07;51.79
76586;BME280;65251;51.022;13.736;2023-05-10T01:03:17;98826.53;;;12.06;51.69
76586;BME280;65251;51.022;13.736;2023-05-10T01:03:48;98832.25;;;12.10;51.50
76586;BME280;65251;51.022;13.736;2023-05-10T01:04:20;98838.03;;;12.06;51.42
76586;BME280;65251;51.022;13.736;2023-05-10T01:04:55;98839.88;;;12.06;51.46
76586;BME280;65251;51.022;13.736;2023-05-10T01:05:26;98838.03;;;12.06;51.88
76586;BME280;65251;51.022;13.736;2023-05-10T01:05:58;98836.63;;;12.04;51.88
76586;BME280;65251;51.022;13.736;2023-05-10T01:06:29;98823.81;;;11.94;51.66
76586;BME280;65251;51.022;13.736;2023-05-10T01:07:00;98840.13;;;12.04;51.86
76586;BME280;65251;51.022;13.736;2023-05-10T01:07:30;98837.66;;;12.03;51.87
76586;BME280;65251;51.022;13.736;2023-05-10T01:08:02;98831.50;;;12.02;52.35
76586;BME280;65251;51.022;13.736;2023-05-10T01:08:33;98833.84;;;11.99;52.04
76586;BME280;65251;51.022;13.736;2023-05-10T01:09:04;98831.72;;;12.01;51.96
76586;BME280;65251;51.022;13.736;2023-05-10T01:09:37;98840.56;;;12.01;51.83
76586;BME280;65251;51.022;13.736;2023-05-10T01:10:08;98833.84;;;11.99;51.80
76586;BME280;65251;51.022;13.736;2023-05-10T01:10:40;98831.94;;;11.99;52.04
76586;BME280;65251;51.022;13.736;2023-05-10T01:11:12;98834.06;;;11.97;51.99
76586;BME280;65251;51.022;13.736;2023-05-10T01:11:43;98827.09;;;11.96;52.18
76586;BME280;65251;51.022;13.736;2023-05-10T01:12:13;98834.28;;;11.96;51.91
76586;BME280;65251;51.022;13.736;2023-05-10T01:12:46;98834.50;;;11.94;51.95
76586;BME280;65251;51.022;13.736;2023-05-10T01:13:31;98833.47;;;11.95;52.20
76586;BME280;65251;51.022;13.736;2023-05-10T01:14:02;98830.78;;;11.95;52.03
76586;BME280;65251;51.022;13.736;2023-05-10T01:14:34;98827.69;;;11.98;51.67
76586;BME280;65251;51.022;13.736;2023-05-10T01:15:09;98833.25;;;11.97;51.92
76586;BME280;65251;51.022;13.736;2023-05-10T01:15:41;98831.38;;;11.97;52.03
76586;BME280;65251;51.022;13.736;2023-05-10T01:16:13;98833.47;;;11.95;51.22
76586;BME280;65251;51.022;13.736;2023-05-10T01:16:48;98829.75;;;11.96;52.00
76586;BME280;65251;51.022;13.736;2023-05-10T01:17:21;98830.78;;;11.95;51.72
76586;BME280;65251;51.022;13.736;2023-05-10T01:17:53;98828.13;;;11.95;51.52
76586;BME280;65251;51.022;13.736;2023-05-10T01:18:26;98836.13;;;11.95;52.17
76586;BME280;65251;51.022;13.736;2023-05-10T01:18:58;98836.59;;;11.92;51.95
76586;BME280;65251;51.022;13.736;2023-05-10T01:19:31;98842.72;;;11.93;52.35
76586;BME280;65251;51.022;13.736;2023-05-10T01:20:06;98830.44;;;11.92;52.08
76586;BME280;65251;51.022;13.736;2023-05-10T01:20:43;98825.16;;;11.85;52.49
76586;BME280;65251;51.022;13.736;2023-05-10T01:21:26;98817.16;;;11.85;52.13
76586;BME280;65251;51.022;13.736;2023-05-10T01:22:06;98829.59;;;11.91;52.11
76586;BME280;65251;51.022;13.736;2023-05-10T01:23:10;98822.25;;;11.87;52.31
76586;BME280;65251;51.022;13.736;2023-05-10T01:24:13;98827.81;;;11.85;52.61
76586;BME280;65251;51.022;13.736;2023-05-10T01:25:13;98829.09;;;11.83;51.95
76586;BME280;65251;51.022;13.736;2023-05-10T01:26:28;98817.81;;;11.81;52.31
76586;BME280;65251;51.022;13.736;2023-05-10T01:27:24;98825.81;;;11.81;52.21
76586;BME280;65251;51.022;13.736;2023-05-10T01:28:15;98828.25;;;11.82;52.39
76586;BME280;65251;51.022;13.736;2023-05-10T01:29:41;98818.63;;;11.81;52.55
76586;BME280;65251;51.022;13.736;2023-05-10T01:30:44;98826.03;;;11.79;52.50
76586;BME280;65251;51.022;13.736;2023-05-10T01:31:30;98823.63;;;11.78;52.68
76586;BME280;65251;51.022;13.736;2023-05-10T01:32:16;98829.59;;;11.73;52.74
76586;BME280;65251;51.022;13.736;2023-05-10T01:32:57;98825.06;;;11.73;52.54
76586;BME280;65251;51.022;13.736;2023-05-10T01:33:35;98825.88;;;11.74;52.73
76586;BME280;65251;51.022;13.736;2023-05-10T01:34:16;98813.66;;;11.66;52.54
76586;BME280;65251;51.022;13.736;2023-05-10T01:35:00;98820.78;;;11.72;52.89
76586;BME280;65251;51.022;13.736;2023-05-10T01:35:39;98824.25;;;11.73;52.64
76586;BME280;65251;51.022;13.736;2023-05-10T01:36:19;98811.56;;;11.68;52.68
76586;BME280;65251;51.022;13.736;2023-05-10T01:37:04;98825.88;;;11.74;53.16
76586;BME280;65251;51.022;13.736;2023-05-10T01:37:43;98817.06;;;11.73;52.92
76586;BME280;65251;51.022;13.736;2023-05-10T01:38:22;98826.09;;;11.72;52.64
76586;BME280;65251;51.022;13.736;2023-05-10T01:39:04;98816.66;;;11.77;52.97
76586;BME280;65251;51.022;13.736;2023-05-10T01:39:45;98817.06;;;11.73;52.80
76586;BME280;65251;51.022;13.736;2023-05-10T01:40:25;98814.25;;;11.68;52.90
76586;BME280;65251;51.022;13.736;2023-05-10T01:41:09;98816.09;;;11.68;52.78
76586;BME280;65251;51.022;13.736;2023-05-10T01:41:51;98808.38;;;11.60;52.81
76586;BME280;65251;51.022;13.736;2023-05-10T01:42:28;98824.75;;;11.63;52.97
76586;BME280;65251;51.022;13.736;2023-05-10T01:43:10;98821.28;;;11.63;53.20
76586;BME280;65251;51.022;13.736;2023-05-10T01:43:51;98823.72;;;11.64;52.88
76586;BME280;65251;51.022;13.736;2023-05-10T01:44:31;98825.56;;;11.64;53.17
76586;BME280;65251;51.022;13.736;2023-05-10T01:45:14;98821.28;;;11.63;53.27
76586;BME280;65251;51.022;13.736;2023-05-10T01:45:59;98820.25;;;11.64;53.06
76586;BME280;65251;51.022;13.736;2023-05-10T01:46:35;98818.59;;;11.63;53.33
76586;BME280;65251;51.022;13.736;2023-05-10T01:47:14;98819.03;;;11.60;53.32
76586;BME280;65251;51.022;13.736;2023-05-10T01:47:50;98812.66;;;11.61;53.42
76586;BME280;65251;51.022;13.736;2023-05-10T01:48:27;98814.19;;;11.57;53.44
76586;BME280;65251;51.022;13.736;2023-05-10T01:49:02;98802.97;;;11.48;53.53
76586;BME280;65251;51.022;13.736;2023-05-10T01:49:39;98816.03;;;11.56;53.56
76586;BME280;65251;51.022;13.736;2023-05-10T01:50:18;98817.88;;;11.56;53.09
76586;BME280;65251;51.022;13.736;2023-05-10T01:50:52;98816.47;;;11.53;53.75
76586;BME280;65251;51.022;13.736;2023-05-10T01:51:27;98817.88;;;11.56;53.11
76586;BME280;65251;51.022;13.736;2023-05-10T01:52:06;98816.69;;;11.52;53.56
76586;BME280;65251;51.022;13.736;2023-05-10T01:52:42;98814.03;;;11.52;53.71
76586;BME280;65251;51.022;13.736;2023-05-10T01:53:19;98816.09;;;11.50;53.99
76586;BME280;65251;51.022;13.736;2023-05-10T01:53:58;98810.97;;;11.48;53.63
76586;BME280;65251;51.022;13.736;2023-05-10T01:54:33;98814.25;;;11.50;53.95
76586;BME280;65251;51.022;13.736;2023-05-10T01:55:09;98817.13;;;11.49;53.76
76586;BME280;65251;51.022;13.736;2023-05-10T01:55:46;98813.66;;;11.48;53.92
76586;BME280;65251;51.022;13.736;2023-05-10T01:56:24;98816.75;;;11.45;54.09
76586;BME280;65251;51.022;13.736;2023-05-10T01:57:02;98829.28;;;11.45;54.26
76586;BME280;65251;51.022;13.736;2023-05-10T01:57:36;98818.59;;;11.45;54.35
76586;BME280;65251;51.022;13.736;2023-05-10T01:58:14;98810.69;;;11.38;53.64
76586;BME280;65251;51.022;13.736;2023-05-10T01:58:48;98818.69;;;11.38;54.29
76586;BME280;65251;51.022;13.736;2023-05-10T01:59:22;98815.22;;;11.37;54.41
76586;BME280;65251;51.022;13.736;2023-05-10T01:59:59;98809.06;;;11.37;54.32
76586;BME280;65251;51.022;13.736;2023-05-10T02:00:33;98803.13;;;11.35;54.65
76586;BME280;65251;51.022;13.736;2023-05-10T02:01:08;98818.09;;;11.36;53.90
76586;BME280;65251;51.022;13.736;2023-05-10T02:01:40;98811.94;;;11.35;53.92
76586;BME280;65251;51.022;13.736;2023-05-10T02:02:15;98815.66;;;11.34;54.39
76586;BME280;65251;51.022;13.736;2023-05-10T02:02:50;98811.56;;;11.32;54.54
76586;BME280;65251;51.022;13.736;2023-05-10T02:03:23;98818.75;;;11.31;54.08
76586;BME280;65251;51.022;13.736;2023-05-10T02:03:57;98807.69;;;11.28;54.34
76586;BME280;65251;51.022;13.736;2023-05-10T02:04:31;98813.63;;;11.30;54.99
76586;BME280;65251;51.022;13.736;2023-05-10T02:05:05;98801.25;;;11.17;54.86
76586;BME280;65251;51.022;13.736;2023-05-10T02:05:38;98815.47;;;11.29;54.65
76586;BME280;65251;51.022;13.736;2023-05-10T02:06:16;98820.22;;;11.27;55.11
76586;BME280;65251;51.022;13.736;2023-05-10T02:06:51;98810.81;;;11.25;54.53
76586;BME280;65251;51.022;13.736;2023-05-10T02:07:24;98805.69;;;11.23;54.10
76586;BME280;65251;51.022;13.736;2023-05-10T02:07:59;98814.50;;;11.24;54.68
76586;BME280;65251;51.022;13.736;2023-05-10T02:08:35;98813.47;;;11.25;54.90
76586;BME280;65251;51.022;13.736;2023-05-10T02:09:09;98816.34;;;11.23;54.71
76586;BME280;65251;51.022;13.736;2023-05-10T02:09:44;98809.97;;;11.24;55.17
76586;BME280;65251;51.022;13.736;2023-05-10T02:10:19;98805.91;;;11.22;55.39
76586;BME280;65251;51.022;13.736;2023-05-10T02:10:54;98812.06;;;11.22;54.61
76586;BME280;65251;51.022;13.736;2023-05-10T02:11:28;98805.56;;;11.18;55.06
76586;BME280;65251;51.022;13.736;2023-05-10T02:12:02;98807.16;;;11.19;55.26
76586;BME280;65251;51.022;13.736;2023-05-10T02:12:37;98796.94;;;11.16;54.93
76586;BME280;65251;51.022;13.736;2023-05-10T02:13:11;98808.56;;;11.22;54.83
76586;BME280;65251;51.022;13.736;2023-05-10T02:13:44;98802.06;;;11.18;54.91
76586;BME280;65251;51.022;13.736;2023-05-10T02:14:19;98802.41;;;11.21;55.17
76586;BME280;65251;51.022;13.736;2023-05-10T02:14:53;98812.28;;;11.21;54.92
76586;BME280;65251;51.022;13.736;2023-05-10T02:15:26;98805.78;;;11.17;54.80
76586;BME280;65251;51.022;13.736;2023-05-10T02:15:59;98807.75;;;11.21;55.24
76586;BME280;65251;51.022;13.736;2023-05-10T02:16:31;98803.09;;;11.17;55.57
76586;BME280;65251;51.022;13.736;2023-05-10T02:17:05;98806.59;;;11.17;55.42
76586;BME280;65251;51.022;13.736;2023-05-10T02:17:39;98807.63;;;11.16;55.02
76586;BME280;65251;51.022;13.736;2023-05-10T02:18:13;98807.41;;;11.18;54.75
76586;BME280;65251;51.022;13.736;2023-05-10T02:18:48;98805.56;;;11.18;54.88
76586;BME280;65251;51.022;13.736;2023-05-10T02:19:22;98807.16;;;11.19;54.59
76586;BME280;65251;51.022;13.736;2023-05-10T02:19:56;98802.28;;;11.16;54.93
76586;BME280;65251;51.022;13.736;2023-05-10T02:20:31;98810.50;;;11.15;55.68
76586;BME280;65251;51.022;13.736;2023-05-10T02:21:04;98806.22;;;11.14;55.36
76586;BME280;65251;51.022;13.736;2023-05-10T02:21:39;98800.06;;;11.13;55.27
76586;BME280;65251;51.022;13.736;2023-05-10T02:22:11;98803.53;;;11.14;54.74
76586;BME280;65251;51.022;13.736;2023-05-10T02:22:44;98799.25;;;11.13;55.35
76586;BME280;65251;51.022;13.736;2023-05-10T02:23:20;98796.34;;;11.14;55.41
76586;BME280;65251;51.022;13.736;2023-05-10T02:23:53;98801.91;;;11.13;55.77
76586;BME280;65251;51.022;13.736;2023-05-10T02:24:27;98794.94;;;11.12;55.61
76586;BME280;65251;51.022;13.736;2023-05-10T02:25:00;98797.38;;;11.13;55.42
76586;BME280;65251;51.022;13.736;2023-05-10T02:25:32;98801.75;;;11.08;54.87
76586;BME280;65251;51.022;13.736;2023-05-10T02:26:04;98797.22;;;11.08;55.99
76586;BME280;65251;51.022;13.736;2023-05-10T02:26:38;98805.22;;;11.08;55.34
76586;BME280;65251;51.022;13.736;2023-05-10T02:27:10;98797.22;;;11.08;55.38
76586;BME280;65251;51.022;13.736;2023-05-10T02:27:44;98800.31;;;11.05;55.50
76586;BME280;65251;51.022;13.736;2023-05-10T02:28:17;98799.28;;;11.06;55.73
76586;BME280;65251;51.022;13.736;2023-05-10T02:28:49;98803.59;;;11.07;55.63
76586;BME280;65251;51.022;13.736;2023-05-10T02:29:23;98808.53;;;11.03;55.91
76586;BME280;65251;51.022;13.736;2023-05-10T02:29:57;98801.56;;;11.02;55.61
76586;BME280;65251;51.022;13.736;2023-05-10T02:30:32;98809.78;;;11.01;55.75
76586;BME280;65251;51.022;13.736;2023-05-10T02:31:05;98801.34;;;11.04;55.83
76586;BME280;65251;51.022;13.736;2023-05-10T02:31:37;98811.22;;;11.03;56.03
76586;BME280;65251;51.022;13.736;2023-05-10T02:32:11;98812.47;;;11.01;55.98
76586;BME280;65251;51.022;13.736;2023-05-10T02:32:44;98808.75;;;11.02;56.44
76586;BME280;65251;51.022;13.736;2023-05-10T02:33:17;98800.75;;;11.02;55.97
76586;BME280;65251;51.022;13.736;2023-05-10T02:33:51;98811.81;;;11.05;55.07
76586;BME280;65251;51.022;13.736;2023-05-10T02:34:25;98805.66;;;11.05;55.83
76586;BME280;65251;51.022;13.736;2023-05-10T02:34:58;98797.88;;;11.03;55.35
76586;BME280;65251;51.022;13.736;2023-05-10T02:35:32;98799.72;;;11.03;55.99
76586;BME280;65251;51.022;13.736;2023-05-10T02:36:10;98807.34;;;10.99;55.95
76586;BME280;65251;51.022;13.736;2023-05-10T02:36:42;98806.78;;;10.97;56.10
76586;BME280;65251;51.022;13.736;2023-05-10T02:37:14;98808.16;;;11.00;56.54
76586;BME280;65251;51.022;13.736;2023-05-10T02:37:48;98812.91;;;10.98;55.60
76586;BME280;65251;51.022;13.736;2023-05-10T02:38:22;98795.28;;;10.97;56.33
76586;BME280;65251;51.022;13.736;2023-05-10T02:38:55;98808.63;;;10.97;56.82
76586;BME280;65251;51.022;13.736;2023-05-10T02:39:31;98802.25;;;10.98;56.07
76586;BME280;65251;51.022;13.736;2023-05-10T02:40:05;98812.09;;;10.97;55.80
76586;BME280;65251;51.022;13.736;2023-05-10T02:40:38;98795.88;;;10.99;55.54
76586;BME280;65251;51.022;13.736;2023-05-10T02:41:13;98804.31;;;10.96;56.34
76586;BME280;65251;51.022;13.736;2023-05-10T02:41:46;98811.72;;;10.94;56.69
76586;BME280;65251;51.022;13.736;2023-05-10T02:42:24;98804.75;;;10.93;55.92
76586;BME280;65251;51.022;13.736;2023-05-10T02:42:59;98794.75;;;10.88;56.79
76586;BME280;65251;51.022;13.736;2023-05-10T02:43:33;98810.28;;;10.91;55.88
76586;BME280;65251;51.022;13.736;2023-05-10T02:44:07;98807.47;;;10.86;56.22
76586;BME280;65251;51.022;13.736;2023-05-10T02:44:41;98811.34;;;10.90;56.03
76586;BME280;65251;51.022;13.736;2023-05-10T02:45:17;98810.50;;;10.90;56.79
76586;BME280;65251;51.022;13.736;2023-05-10T02:45:49;98796.00;;;10.86;56.20
76586;BME280;65251;51.022;13.736;2023-05-10T02:46:21;98794.94;;;10.87;56.41
76586;BME280;65251;51.022;13.736;2023-05-10T02:46:51;98806.88;;;10.84;56.91
76586;BME280;65251;51.022;13.736;2023-05-10T02:47:22;98804.81;;;10.86;57.33
76586;BME280;65251;51.022;13.736;2023-05-10T02:47:55;98809.31;;;10.86;56.85
76586;BME280;65251;51.022;13.736;2023-05-10T02:48:28;98807.69;;;10.85;57.36
76586;BME280;65251;51.022;13.736;2023-05-10T02:49:00;98807.69;;;10.85;56.68
76586;BME280;65251;51.022;13.736;2023-05-10T02:49:31;98808.09;;;10.82;56.30
76586;BME280;65251;51.022;13.736;2023-05-10T02:50:03;98802.78;;;10.82;56.83
76586;BME280;65251;51.022;13.736;2023-05-10T02:50:37;98798.06;;;10.84;56.46
76586;BME280;65251;51.022;13.736;2023-05-10T02:51:12;98807.69;;;10.85;57.19
76586;BME280;65251;51.022;13.736;2023-05-10T02:51:51;98804.41;;;10.83;57.09
76586;BME280;65251;51.022;13.736;2023-05-10T02:52:30;98807.50;;;10.80;56.27
76586;BME280;65251;51.022;13.736;2023-05-10T02:53:10;98796.84;;;10.80;56.64
76586;BME280;65251;51.022;13.736;2023-05-10T02:53:48;98801.97;;;10.81;56.63
76586;BME280;65251;51.022;13.736;2023-05-10T02:54:26;98802.19;;;10.80;56.80
76586;BME280;65251;51.022;13.736;2023-05-10T02:55:02;98794.44;;;10.78;56.77
76586;BME280;65251;51.022;13.736;2023-05-10T02:55:39;98800.31;;;10.80;57.06
76586;BME280;65251;51.022;13.736;2023-05-10T02:56:15;98802.63;;;10.77;57.71
76586;BME280;65251;51.022;13.736;2023-05-10T02:56:55;98799.59;;;10.73;56.74
76586;BME280;65251;51.022;13.736;2023-05-10T02:57:32;98794.25;;;10.73;56.70
76586;BME280;65251;51.022;13.736;2023-05-10T02:58:05;98801.66;;;10.71;57.05
76586;BME280;65251;51.022;13.736;2023-05-10T02:58:35;98799.81;;;10.72;57.83
76586;BME280;65251;51.022;13.736;2023-05-10T02:59:07;98804.31;;;10.71;56.80
76586;BME280;65251;51.022;13.736;2023-05-10T02:59:38;98804.53;;;10.69;57.75
76586;BME280;65251;51.022;13.736;2023-05-10T03:00:11;98801.88;;;10.69;57.87